createdAt,value
2018-12-06T04:29:08.577Z,7.90
2018-12-06T04:31:41.447Z,7.70
2018-12-06T04:34:15.869Z,7.80
2018-12-06T04:36:48.265Z,7.90
2018-12-06T04:39:25.170Z,7.70
2018-12-06T04:41:57.920Z,7.50
2018-12-06T04:44:33.401Z,7.60
2018-12-06T04:47:04.321Z,7.80
2018-12-06T04:49:36.656Z,7.80
2018-12-06T04:52:09.164Z,7.90
2018-12-06T04:54:41.796Z,8.00
2018-12-06T04:57:14.817Z,7.90
2018-12-06T04:59:49.998Z,7.90
2018-12-06T05:02:24.195Z,7.90
2018-12-06T05:07:57.356Z,7.90
2018-12-06T05:10:29.682Z,7.80
2018-12-06T05:13:01.764Z,7.80
2018-12-06T05:15:34.083Z,7.80
2018-12-06T05:18:06.984Z,7.70
2018-12-06T05:20:39.704Z,7.60
2018-12-06T05:23:12.474Z,7.60
2018-12-06T05:25:44.988Z,7.70
2018-12-06T05:28:19.580Z,7.80
2018-12-06T05:30:52.401Z,7.60
2018-12-06T05:33:28.752Z,7.40
2018-12-06T05:36:03.979Z,7.70
2018-12-06T05:38:34.402Z,7.70
2018-12-06T05:41:09.491Z,7.70
2018-12-06T05:43:42.959Z,7.60
2018-12-06T05:46:16.036Z,7.60
2018-12-06T05:48:48.689Z,7.80
2018-12-06T05:51:19.441Z,7.90
2018-12-06T05:53:52.504Z,8.00
2018-12-06T05:56:24.632Z,7.80
2018-12-06T05:59:00.041Z,8.00
2018-12-06T06:01:32.780Z,8.00
2018-12-06T06:04:05.090Z,7.90
2018-12-06T06:06:37.352Z,8.00
2018-12-06T06:09:09.730Z,8.10
2018-12-06T06:11:42.084Z,8.10
2018-12-06T06:14:14.172Z,8.10
2018-12-06T06:16:44.585Z,8.00
2018-12-06T06:19:16.736Z,7.90
2018-12-06T06:21:46.972Z,7.70
2018-12-06T06:24:19.761Z,7.90
2018-12-06T06:26:52.776Z,7.60
2018-12-06T06:29:25.808Z,7.50
2018-12-06T06:31:58.753Z,7.60
2018-12-06T06:34:37.435Z,7.60
2018-12-06T06:37:06.532Z,7.70
2018-12-06T06:39:35.599Z,7.80
2018-12-06T06:42:10.085Z,7.90
2018-12-06T06:44:45.241Z,7.80
2018-12-06T06:47:20.417Z,7.60
2018-12-06T06:49:55.606Z,7.70
2018-12-06T06:52:40.764Z,7.80
2018-12-06T06:55:11.749Z,7.90
2018-12-06T06:57:44.630Z,7.80
2018-12-06T07:00:16.935Z,7.80
2018-12-06T07:02:49.120Z,7.90
2018-12-06T07:05:21.424Z,7.90
2018-12-06T07:07:53.825Z,7.90
2018-12-06T07:10:29.365Z,7.90
2018-12-06T07:13:02.091Z,7.90
2018-12-06T07:15:35.063Z,8.00
2018-12-06T07:18:09.316Z,7.90
2018-12-06T07:20:42.483Z,8.00
2018-12-06T07:23:15.890Z,8.10
2018-12-06T07:25:49.008Z,8.20
2018-12-06T07:28:21.772Z,8.30
2018-12-06T07:30:54.196Z,8.40
2018-12-06T07:33:28.909Z,8.30
2018-12-06T07:36:01.980Z,8.20
2018-12-06T07:38:34.212Z,8.20
2018-12-06T07:41:06.684Z,8.20
2018-12-06T07:43:39.061Z,8.20
2018-12-06T07:46:12.117Z,7.90
2018-12-06T07:48:44.515Z,7.90
2018-12-06T07:51:17.037Z,8.10
2018-12-06T07:53:50.141Z,8.20
2018-12-06T07:56:23.199Z,8.30
2018-12-06T07:58:55.588Z,8.30
2018-12-06T08:01:28.625Z,8.40
2018-12-06T08:04:03.516Z,8.40
2018-12-06T08:06:36.261Z,8.50
2018-12-06T08:09:10.502Z,8.50
2018-12-06T08:11:42.800Z,8.30
2018-12-06T08:14:15.126Z,8.30
2018-12-06T08:16:47.331Z,8.10
2018-12-06T08:19:19.647Z,8.10
2018-12-06T08:21:52.167Z,8.10
2018-12-06T08:24:24.906Z,8.30
2018-12-06T08:26:57.191Z,8.10
2018-12-06T08:29:29.713Z,8.20
2018-12-06T08:32:01.886Z,8.20
2018-12-06T08:34:36.435Z,8.20
2018-12-06T08:37:09.283Z,8.40
2018-12-06T08:39:41.643Z,8.60
2018-12-06T08:42:13.755Z,8.50
2018-12-06T08:44:46.173Z,8.40
2018-12-06T08:47:22.220Z,8.60
2018-12-06T08:49:54.758Z,8.70
2018-12-06T08:52:23.803Z,8.50
2018-12-06T08:54:56.426Z,8.50
2018-12-06T08:57:29.319Z,8.40
2018-12-06T09:00:01.771Z,8.20
2018-12-06T09:02:37.939Z,8.40
2018-12-06T09:05:08.849Z,8.50
2018-12-06T09:07:42.125Z,8.50
2018-12-06T09:10:14.629Z,8.60
2018-12-06T09:12:47.785Z,8.60
2018-12-06T09:15:20.945Z,8.60
2018-12-06T09:17:53.980Z,8.70
2018-12-06T09:20:26.112Z,8.90
2018-12-06T09:22:58.315Z,8.90
2018-12-06T09:25:33.344Z,8.80
2018-12-06T09:28:05.857Z,8.80
2018-12-06T09:30:38.178Z,9.00
2018-12-06T09:33:10.694Z,8.80
2018-12-06T09:35:42.877Z,8.60
2018-12-06T09:38:15.195Z,8.50
2018-12-06T09:40:47.528Z,8.50
2018-12-06T09:43:19.635Z,8.40
2018-12-06T09:45:51.805Z,8.50
2018-12-06T09:48:23.954Z,8.60
2018-12-06T09:50:56.453Z,8.50
2018-12-06T09:53:28.873Z,8.60
2018-12-06T09:55:59.311Z,8.50
2018-12-06T09:58:31.521Z,8.60
2018-12-06T10:01:06.069Z,8.70
2018-12-06T10:03:41.413Z,8.70
2018-12-06T10:06:13.541Z,8.80
2018-12-06T10:08:46.358Z,8.90
2018-12-06T10:11:19.356Z,9.00
2018-12-06T10:13:51.850Z,8.70
2018-12-06T10:16:24.091Z,8.70
2018-12-06T10:19:00.793Z,8.60
2018-12-06T10:21:33.822Z,8.70
2018-12-06T10:24:06.255Z,9.00
2018-12-06T10:26:38.653Z,8.90
2018-12-06T10:29:10.957Z,8.80
2018-12-06T10:31:47.957Z,9.00
2018-12-06T10:34:20.581Z,9.10
2018-12-06T10:36:53.334Z,9.00
2018-12-06T10:39:24.441Z,9.10
2018-12-06T11:15:11.029Z,10.30
2018-12-06T11:17:46.484Z,10.20
2018-12-06T11:20:19.260Z,10.30
2018-12-06T11:22:52.466Z,10.20
2018-12-06T11:25:25.811Z,10.00
2018-12-06T11:27:57.996Z,10.00
2018-12-06T11:30:30.438Z,10.10
2018-12-06T11:33:02.920Z,10.30
2018-12-06T11:35:35.695Z,10.40
2018-12-06T11:38:09.057Z,10.40
2018-12-06T11:40:42.549Z,10.50
2018-12-06T11:43:15.735Z,10.50
2018-12-06T11:45:48.915Z,10.40
2018-12-06T11:48:26.857Z,10.40
2018-12-06T11:50:56.232Z,10.50
2018-12-06T11:53:33.047Z,10.60
2018-12-06T11:56:08.806Z,10.60
2018-12-06T11:58:41.355Z,10.50
2018-12-06T12:01:14.419Z,10.60
2018-12-06T12:03:50.096Z,10.80
2018-12-06T12:06:23.254Z,10.70
2018-12-06T12:08:55.404Z,10.80
2018-12-06T12:11:27.800Z,11.00
2018-12-06T12:14:00.114Z,11.00
2018-12-06T12:16:34.912Z,11.00
2018-12-06T12:19:07.952Z,11.00
2018-12-06T12:21:38.236Z,11.00
2018-12-06T12:24:11.728Z,11.10
2018-12-06T12:26:50.316Z,11.10
2018-12-06T12:29:23.639Z,11.20
2018-12-06T12:31:56.718Z,11.20
2018-12-06T12:34:29.243Z,11.20
2018-12-06T12:37:02.414Z,11.20
2018-12-06T12:39:32.985Z,11.20
2018-12-06T12:42:06.624Z,11.20
2018-12-06T12:44:39.071Z,11.30
2018-12-06T12:47:09.513Z,11.10
2018-12-06T12:49:41.952Z,11.00
2018-12-06T12:52:14.344Z,11.00
2018-12-06T12:54:48.011Z,10.90
2018-12-06T12:57:26.336Z,10.90
2018-12-06T13:00:03.928Z,10.90
2018-12-06T13:02:39.531Z,10.60
2018-12-06T13:05:16.521Z,10.80
2018-12-06T13:07:49.491Z,10.90
2018-12-06T13:10:22.156Z,11.00
2018-12-06T13:12:54.509Z,11.10
2018-12-06T13:15:26.984Z,11.20
2018-12-06T13:17:59.613Z,11.30
2018-12-06T13:20:31.749Z,11.30
2018-12-06T13:23:04.274Z,11.40
2018-12-06T13:25:37.353Z,11.50
2018-12-06T13:28:09.930Z,11.50
2018-12-06T13:30:42.619Z,11.40
2018-12-06T13:36:25.097Z,11.40
2018-12-06T13:38:58.942Z,11.30
2018-12-06T13:41:32.977Z,11.30
2018-12-06T13:44:11.265Z,11.40
2018-12-06T13:46:44.737Z,11.30
2018-12-06T13:49:19.064Z,11.30
2018-12-06T13:51:56.099Z,11.20
2018-12-06T13:54:33.176Z,11.10
2018-12-06T14:00:19.606Z,11.10
2018-12-06T14:03:14.250Z,11.10
2018-12-06T14:05:49.740Z,11.00
2018-12-06T14:08:32.241Z,11.00
2018-12-06T14:11:21.697Z,11.10
2018-12-06T14:14:05.854Z,11.00
2018-12-06T14:16:42.086Z,11.10
2018-12-06T14:19:15.929Z,11.10
2018-12-06T14:21:51.387Z,11.10
2018-12-06T14:24:28.082Z,11.00
2018-12-06T14:27:01.510Z,11.00
2018-12-06T14:29:35.016Z,11.00
2018-12-06T14:32:11.410Z,10.90
2018-12-06T14:34:44.805Z,10.90
2018-12-06T14:37:21.469Z,11.00
2018-12-06T14:40:00.758Z,10.90
2018-12-06T14:42:31.743Z,10.80
2018-12-06T14:45:07.956Z,11.00
2018-12-06T14:47:41.889Z,10.90
2018-12-06T14:50:13.638Z,10.90
2018-12-06T14:52:47.855Z,10.90
2018-12-06T14:55:32.237Z,10.90
2018-12-06T14:58:08.816Z,10.90
2018-12-06T15:00:42.499Z,10.80
2018-12-06T15:03:20.501Z,10.80
2018-12-06T15:08:58.449Z,10.80
2018-12-06T15:11:36.492Z,10.80
2018-12-06T15:16:55.181Z,10.70
2018-12-06T15:19:32.726Z,10.70
2018-12-06T15:22:06.375Z,10.80
2018-12-06T15:24:46.024Z,10.70
2018-12-06T15:27:22.969Z,10.70
2018-12-06T15:30:00.447Z,10.60
2018-12-06T15:35:31.524Z,10.60
2018-12-06T15:38:08.166Z,10.50
2018-12-06T15:40:43.397Z,10.60
2018-12-06T15:43:16.281Z,10.50
2018-12-06T15:45:51.674Z,10.40
2018-12-06T15:48:23.961Z,10.50
2018-12-06T15:51:01.776Z,10.50
2018-12-06T15:53:37.388Z,10.50
2018-12-06T15:56:16.072Z,10.50
2018-12-06T15:58:50.641Z,10.40
2018-12-06T16:01:32.065Z,10.40
2018-12-06T16:04:11.680Z,10.40
2018-12-06T16:06:49.446Z,10.40
2018-12-06T16:09:26.137Z,10.30
2018-12-06T16:12:14.972Z,10.30
2018-12-06T16:15:01.390Z,10.30
2018-12-06T16:17:34.924Z,10.30
2018-12-06T16:20:10.748Z,10.30
2018-12-06T16:22:48.391Z,10.20
2018-12-06T16:25:27.798Z,10.30
2018-12-06T16:28:01.630Z,10.30
2018-12-06T16:30:38.867Z,10.30
2018-12-06T16:33:15.890Z,10.30
2018-12-06T16:38:39.224Z,10.20
2018-12-06T16:41:23.084Z,10.10
2018-12-06T16:44:08.552Z,10.10
2018-12-06T16:46:47.363Z,10.20
2018-12-06T16:49:22.394Z,10.30
2018-12-06T16:52:02.718Z,10.20
2018-12-06T17:08:51.841Z,10.30
2018-12-06T17:11:29.398Z,10.30
2018-12-06T17:14:03.341Z,10.30
2018-12-06T17:16:36.429Z,10.30
2018-12-06T17:19:13.222Z,10.30
2018-12-06T17:21:48.806Z,10.20
2018-12-06T17:24:29.080Z,10.30
2018-12-06T17:27:04.711Z,10.30
2018-12-06T17:29:44.001Z,10.40
2018-12-06T17:32:16.686Z,10.30
2018-12-06T17:34:50.737Z,10.30
2018-12-06T17:37:36.004Z,10.30
2018-12-06T17:40:11.887Z,10.40
2018-12-06T17:42:47.115Z,10.30
2018-12-06T17:45:20.343Z,10.30
2018-12-06T17:47:53.133Z,10.30
2018-12-06T17:50:27.892Z,10.30
2018-12-06T17:53:02.834Z,10.30
2018-12-06T17:55:44.083Z,10.30
2018-12-06T17:58:19.372Z,10.30
2018-12-06T18:00:55.296Z,10.30
2018-12-06T18:03:33.129Z,10.40
2018-12-06T18:06:11.176Z,10.40
2018-12-06T18:08:48.425Z,10.40
2018-12-06T18:11:31.155Z,10.40
2018-12-06T18:14:13.705Z,10.40
2018-12-06T18:16:48.378Z,10.40
2018-12-06T18:19:24.084Z,10.40
2018-12-06T18:21:59.294Z,10.50
2018-12-06T18:24:41.083Z,10.40
2018-12-06T18:27:19.130Z,10.50
2018-12-06T18:29:53.320Z,10.40
2018-12-06T18:32:28.371Z,10.40
2018-12-06T18:35:03.200Z,10.30
2018-12-06T18:37:44.960Z,10.40
2018-12-06T18:40:18.703Z,10.50
2018-12-06T18:42:52.400Z,10.40
2018-12-06T18:45:23.676Z,10.50
2018-12-06T18:47:54.190Z,10.50
2018-12-06T18:50:28.419Z,10.40
2018-12-06T18:53:01.439Z,10.50
2018-12-06T18:55:33.014Z,10.40
2018-12-06T18:58:06.069Z,10.40
2018-12-06T19:00:39.204Z,10.30
2018-12-06T19:03:11.973Z,10.40
2018-12-06T19:05:44.974Z,10.30
2018-12-06T19:08:20.356Z,10.20
2018-12-06T19:10:52.808Z,10.20
2018-12-06T19:13:22.056Z,10.00
2018-12-06T19:15:59.213Z,10.10
2018-12-06T19:18:32.788Z,10.20
2018-12-06T19:21:05.186Z,10.30
2018-12-06T19:23:41.312Z,10.20
2018-12-06T19:26:11.978Z,10.10
2018-12-06T19:28:47.864Z,10.10
2018-12-06T19:31:20.648Z,10.10
2018-12-06T19:33:54.623Z,10.30
2018-12-06T19:36:28.278Z,10.30
2018-12-06T19:39:01.008Z,10.20
2018-12-06T19:41:35.518Z,10.10
2018-12-06T19:44:08.196Z,10.00
2018-12-06T19:46:42.119Z,10.00
2018-12-06T19:49:17.381Z,9.90
2018-12-06T19:51:52.618Z,9.90
2018-12-06T19:54:27.688Z,10.00
2018-12-06T19:57:00.921Z,9.90
2018-12-06T19:59:36.758Z,9.90
2018-12-06T20:02:11.286Z,9.80
2018-12-06T20:04:44.587Z,9.90
2018-12-06T20:07:17.741Z,9.90
2018-12-06T20:09:52.890Z,9.70
2018-12-06T20:12:29.925Z,9.90
2018-12-06T20:15:06.158Z,10.00
2018-12-06T20:17:44.257Z,9.90
2018-12-06T20:20:24.136Z,10.00
2018-12-06T20:22:58.674Z,10.00
2018-12-06T20:25:33.262Z,10.00
2018-12-06T20:28:07.259Z,10.00
2018-12-06T20:30:38.352Z,10.00
2018-12-06T20:33:12.929Z,9.80
2018-12-06T20:35:49.438Z,9.80
2018-12-06T20:38:22.918Z,9.60
2018-12-06T20:40:58.591Z,9.60
2018-12-06T20:43:34.356Z,9.60
2018-12-06T20:46:07.378Z,9.60
2018-12-06T20:48:41.531Z,9.70
2018-12-06T20:51:11.051Z,9.70
2018-12-06T20:53:41.492Z,9.70
2018-12-06T20:56:12.424Z,9.70
2018-12-06T20:58:41.602Z,9.80
2018-12-06T21:01:11.398Z,9.70
2018-12-06T21:03:41.991Z,9.80
2018-12-06T21:06:13.594Z,9.80
2018-12-06T21:08:42.999Z,9.90
2018-12-06T21:11:12.269Z,10.10
2018-12-06T21:16:10.609Z,10.30
2018-12-06T21:18:42.006Z,10.40
2018-12-06T21:21:12.700Z,10.50
2018-12-06T21:23:42.153Z,10.50
2018-12-06T21:26:11.227Z,10.50
2018-12-06T21:28:42.893Z,10.60
2018-12-06T21:31:12.525Z,10.60
2018-12-06T21:33:43.922Z,10.50
2018-12-06T21:36:13.245Z,10.60
2018-12-06T21:38:44.386Z,10.50
2018-12-06T21:41:15.533Z,10.50
2018-12-06T21:43:45.254Z,10.60
2018-12-06T21:46:14.584Z,10.70
2018-12-06T21:48:45.078Z,10.80
2018-12-06T21:51:14.791Z,10.80
2018-12-06T21:53:44.424Z,10.80
2018-12-06T21:56:13.885Z,10.90
